createdAt,value
2019-05-12T00:02:02.835Z,59.06
2019-05-12T00:04:35.117Z,59.65
2019-05-12T00:07:08.759Z,59.08
2019-05-12T00:09:41.143Z,59.59
2019-05-12T00:12:13.400Z,59.65
2019-05-12T00:14:45.687Z,60.05
2019-05-12T00:17:18.862Z,59.50
2019-05-12T00:19:51.402Z,59.84
2019-05-12T00:22:23.644Z,59.61
2019-05-12T00:24:58.292Z,60.31
2019-05-12T00:27:29.876Z,60.26
2019-05-12T00:30:02.148Z,60.85
2019-05-12T00:32:34.871Z,60.90
2019-05-12T00:35:07.859Z,61.20
2019-05-12T00:37:40.389Z,61.28
2019-05-12T00:40:12.604Z,61.47
2019-05-12T00:42:44.805Z,61.92
2019-05-12T00:45:18.096Z,62.05
2019-05-12T00:47:50.438Z,62.73
2019-05-12T00:50:22.697Z,62.32
2019-05-12T00:52:54.948Z,62.37
2019-05-12T00:55:28.964Z,62.73
2019-05-12T00:58:01.116Z,63.20
2019-05-12T01:00:33.327Z,63.13
2019-05-12T01:03:08.408Z,63.50
2019-05-12T01:05:39.492Z,63.37
2019-05-12T01:08:11.700Z,63.54
2019-05-12T01:10:47.800Z,63.95
2019-05-12T01:13:19.369Z,63.80
2019-05-12T01:15:51.613Z,63.90
2019-05-12T01:18:23.823Z,64.17
2019-05-12T01:20:58.267Z,64.04
2019-05-12T01:23:29.956Z,64.45
2019-05-12T01:26:02.155Z,64.33
2019-05-12T01:28:34.378Z,64.66
2019-05-12T01:31:08.579Z,64.73
2019-05-12T01:33:40.959Z,64.82
2019-05-12T01:36:15.511Z,65.14
2019-05-12T01:38:48.306Z,64.96
2019-05-12T01:41:20.639Z,65.09
2019-05-12T01:43:52.909Z,64.91
2019-05-12T01:46:25.139Z,65.33
2019-05-12T01:48:59.113Z,65.60
2019-05-12T01:51:31.398Z,65.95
2019-05-12T01:54:13.591Z,65.82
2019-05-12T01:56:38.262Z,65.99
2019-05-12T01:59:10.758Z,65.99
2019-05-12T02:01:42.962Z,66.29
2019-05-12T02:04:15.271Z,66.17
2019-05-12T02:06:48.568Z,66.35
2019-05-12T02:09:20.908Z,66.17
2019-05-12T02:11:53.143Z,66.27
2019-05-12T02:14:27.477Z,66.28
2019-05-12T02:16:59.289Z,66.41
2019-05-12T02:19:31.507Z,66.23
2019-05-12T02:22:03.755Z,66.14
2019-05-12T02:24:36.021Z,66.24
2019-05-12T02:27:08.363Z,65.77
2019-05-12T02:29:40.637Z,66.01
2019-05-12T02:32:12.883Z,66.13
2019-05-12T02:34:45.728Z,66.24
2019-05-12T02:37:18.146Z,66.30
2019-05-12T02:39:50.353Z,66.97
2019-05-12T02:42:24.382Z,66.79
2019-05-12T02:44:56.536Z,66.82
2019-05-12T02:47:28.753Z,66.71
2019-05-12T02:50:00.966Z,66.68
2019-05-12T02:52:34.893Z,67.16
2019-05-12T02:55:07.419Z,67.23
2019-05-12T02:57:45.037Z,67.24
2019-05-12T03:00:16.290Z,67.05
2019-05-12T03:02:48.510Z,67.41
2019-05-12T03:05:20.706Z,67.85
2019-05-12T03:07:55.233Z,68.05
2019-05-12T03:10:26.865Z,68.22
2019-05-12T03:12:59.084Z,68.04
2019-05-12T03:15:31.306Z,68.41
2019-05-12T03:18:06.172Z,68.49
2019-05-12T03:20:37.456Z,68.55
2019-05-12T03:23:09.714Z,68.79
2019-05-12T03:25:45.377Z,68.54
2019-05-12T03:28:16.349Z,68.76
2019-05-12T03:30:49.431Z,69.00
2019-05-12T03:33:33.602Z,68.84
2019-05-12T03:36:00.668Z,69.07
2019-05-12T03:38:31.693Z,69.42
2019-05-12T03:41:05.302Z,69.47
2019-05-12T03:43:37.938Z,69.55
2019-05-12T03:46:10.174Z,69.47
2019-05-12T03:48:45.421Z,69.34
2019-05-12T03:51:16.371Z,69.56
2019-05-12T03:53:48.633Z,69.60
2019-05-12T03:56:20.854Z,69.60
2019-05-12T03:58:54.096Z,69.51
2019-05-12T04:01:26.502Z,69.52
2019-05-12T04:03:58.723Z,69.68
2019-05-12T04:06:30.962Z,69.70
2019-05-12T04:09:04.753Z,69.78
2019-05-12T04:11:36.999Z,69.64
2019-05-12T04:14:09.251Z,69.95
2019-05-12T04:16:44.876Z,70.26
2019-05-12T04:19:15.941Z,70.51
2019-05-12T04:21:48.192Z,70.17
2019-05-12T04:24:20.435Z,69.88
2019-05-12T04:26:55.152Z,69.74
2019-05-12T04:29:27.679Z,69.39
2019-05-12T04:31:59.939Z,69.08
2019-05-12T04:34:34.304Z,68.83
2019-05-12T04:37:07.257Z,68.51
2019-05-12T04:39:39.461Z,68.23
2019-05-12T04:42:14.680Z,67.53
2019-05-12T04:44:45.609Z,66.88
2019-05-12T04:47:17.909Z,65.74
2019-05-12T04:49:50.174Z,65.27
2019-05-12T04:52:24.848Z,64.97
2019-05-12T04:54:56.311Z,63.96
2019-05-12T04:57:28.350Z,64.01
2019-05-12T05:00:00.567Z,63.22
2019-05-12T05:02:36.275Z,62.98
2019-05-12T05:05:06.841Z,62.29
2019-05-12T05:07:39.109Z,61.80
2019-05-12T05:10:14.277Z,62.05
2019-05-12T05:12:45.275Z,61.92
2019-05-12T05:15:17.492Z,61.01
2019-05-12T05:17:49.740Z,60.19
2019-05-12T05:20:23.964Z,58.90
2019-05-12T05:22:56.336Z,58.71
2019-05-12T05:25:28.535Z,59.05
2019-05-12T05:28:00.731Z,58.77
2019-05-12T05:30:34.091Z,59.07
2019-05-12T05:33:10.256Z,60.29
2019-05-12T05:35:43.597Z,59.78
2019-05-12T05:38:20.598Z,59.70
2019-05-12T05:40:50.126Z,60.99
2019-05-12T05:43:24.171Z,60.26
2019-05-12T05:46:02.499Z,60.91
2019-05-12T05:48:32.177Z,60.92
2019-05-12T05:51:08.805Z,60.23
2019-05-12T05:53:38.644Z,59.80
2019-05-12T05:56:10.879Z,58.57
2019-05-12T05:58:47.007Z,59.18
2019-05-12T06:01:17.094Z,59.49
2019-05-12T06:03:49.291Z,59.50
2019-05-12T06:06:23.650Z,58.23
2019-05-12T06:08:55.452Z,57.64
2019-05-12T06:11:28.558Z,57.17
2019-05-12T06:14:03.256Z,57.33
2019-05-12T06:16:35.043Z,58.90
2019-05-12T06:19:07.312Z,57.82
2019-05-12T06:21:39.525Z,57.30
2019-05-12T06:24:15.539Z,57.18
2019-05-12T06:26:56.617Z,58.14
2019-05-12T06:29:21.846Z,56.74
2019-05-12T06:31:54.311Z,57.48
2019-05-12T06:34:26.660Z,56.69
2019-05-12T06:37:03.060Z,56.92
2019-05-12T06:39:34.356Z,56.39
2019-05-12T06:42:12.347Z,57.05
2019-05-12T06:44:43.758Z,56.83
2019-05-12T06:47:15.753Z,56.80
2019-05-12T06:49:48.872Z,56.07
2019-05-12T06:52:23.714Z,55.41
2019-05-12T06:54:56.822Z,54.53
2019-05-12T06:57:29.193Z,54.61
2019-05-12T07:00:01.487Z,54.79
2019-05-12T07:02:37.124Z,53.96
2019-05-12T07:05:07.942Z,53.72
2019-05-12T07:07:44.301Z,52.76
2019-05-12T07:10:35.479Z,52.62
2019-05-12T07:12:58.972Z,53.68
2019-05-12T07:15:23.851Z,52.86
2019-05-12T07:17:56.025Z,53.02
2019-05-12T07:20:29.299Z,52.23
2019-05-12T07:23:04.030Z,53.04
2019-05-12T07:25:36.967Z,52.39
2019-05-12T07:28:09.359Z,51.96
2019-05-12T07:30:43.894Z,51.81
2019-05-12T07:33:15.654Z,50.34
2019-05-12T07:35:48.006Z,48.39
2019-05-12T07:38:21.669Z,48.05
2019-05-12T07:40:54.193Z,46.87
2019-05-12T07:43:26.389Z,46.39
2019-05-12T07:46:02.524Z,47.14
2019-05-12T07:48:33.437Z,45.33
2019-05-12T07:51:06.280Z,45.71
2019-05-12T07:53:38.490Z,46.29
2019-05-12T07:56:10.708Z,46.67
2019-05-12T07:58:47.471Z,45.57
2019-05-12T08:01:17.154Z,44.70
2019-05-12T08:03:51.025Z,44.13
2019-05-12T08:06:24.415Z,44.22
2019-05-12T08:08:59.033Z,44.15
2019-05-12T08:11:36.664Z,45.53
2019-05-12T08:14:04.717Z,49.08
2019-05-12T08:16:37.229Z,50.35
2019-05-12T08:19:14.994Z,50.97
2019-05-12T08:21:49.116Z,51.21
2019-05-12T08:24:18.857Z,50.45
2019-05-12T08:27:01.455Z,49.70
2019-05-12T08:29:25.073Z,48.69
2019-05-12T08:31:57.346Z,48.63
2019-05-12T08:34:29.630Z,48.60
2019-05-12T08:37:01.813Z,48.54
2019-05-12T08:39:34.464Z,48.87
2019-05-12T08:42:06.689Z,48.41
2019-05-12T08:44:40.717Z,48.95
2019-05-12T08:47:15.223Z,47.83
2019-05-12T08:49:55.151Z,49.30
2019-05-12T08:52:23.540Z,49.77
2019-05-12T08:54:55.875Z,49.58
2019-05-12T08:57:34.835Z,50.27
2019-05-12T09:00:03.426Z,50.36
2019-05-12T09:02:39.854Z,50.23
2019-05-12T09:05:10.340Z,50.14
2019-05-12T09:07:43.565Z,48.11
2019-05-12T09:10:15.986Z,48.10
2019-05-12T09:12:48.259Z,47.15
2019-05-12T09:15:20.538Z,45.67
2019-05-12T09:17:56.836Z,44.95
2019-05-12T09:20:27.743Z,43.79
2019-05-12T09:23:00.858Z,44.01
2019-05-12T09:25:34.338Z,43.20
2019-05-12T09:28:09.172Z,42.85
2019-05-12T09:30:47.520Z,42.69
2019-05-12T09:33:15.403Z,41.98
2019-05-12T09:35:47.640Z,43.95
2019-05-12T09:38:21.620Z,44.97
2019-05-12T09:41:00.723Z,44.33
2019-05-12T09:43:28.438Z,43.61
2019-05-12T09:46:00.787Z,44.44
2019-05-12T09:48:33.804Z,44.66
2019-05-12T09:51:08.023Z,44.87
2019-05-12T09:53:50.583Z,45.00
2019-05-12T09:56:16.595Z,45.02
2019-05-12T09:58:59.018Z,45.80
2019-05-12T10:01:24.210Z,43.94
2019-05-12T10:03:56.541Z,43.72
2019-05-12T10:06:29.553Z,44.32
2019-05-12T10:09:03.460Z,44.13
2019-05-12T10:11:36.024Z,44.65
2019-05-12T10:14:10.767Z,43.67
2019-05-12T10:16:45.572Z,43.10
2019-05-12T10:19:17.451Z,43.21
2019-05-12T10:21:55.180Z,43.50
2019-05-12T10:24:23.744Z,42.85
2019-05-12T10:26:56.016Z,40.49
2019-05-12T10:29:30.692Z,41.46
2019-05-12T10:32:03.985Z,42.28
2019-05-12T10:34:40.268Z,42.99
2019-05-12T10:37:10.244Z,45.50
2019-05-12T10:39:42.501Z,49.57
2019-05-12T10:42:14.943Z,49.59
2019-05-12T10:44:47.031Z,52.17
2019-05-12T10:47:19.524Z,52.52
2019-05-12T10:49:53.790Z,54.71
2019-05-12T10:52:29.338Z,55.05
2019-05-12T10:54:59.688Z,54.39
2019-05-12T10:57:33.364Z,53.76
2019-05-12T11:00:05.807Z,52.93
2019-05-12T11:02:38.043Z,53.18
2019-05-12T11:05:20.678Z,54.69
2019-05-12T11:07:45.374Z,51.12
2019-05-12T11:10:20.146Z,49.99
2019-05-12T11:12:51.538Z,49.97
2019-05-12T11:15:24.504Z,49.01
2019-05-12T11:17:57.256Z,48.17
2019-05-12T11:20:30.173Z,46.54
2019-05-12T11:23:04.799Z,46.48
2019-05-12T11:25:37.050Z,45.51
2019-05-12T11:28:09.461Z,44.11
2019-05-12T11:30:43.670Z,44.23
2019-05-12T11:33:15.765Z,42.26
2019-05-12T11:35:48.230Z,41.95
2019-05-12T11:38:20.433Z,42.30
2019-05-12T11:40:53.794Z,42.64
2019-05-12T11:43:26.256Z,42.49
2019-05-12T11:45:58.872Z,42.79
2019-05-12T11:48:31.132Z,42.86
2019-05-12T11:51:03.963Z,40.31
2019-05-12T11:53:36.502Z,33.03
2019-05-12T11:56:09.695Z,31.23
2019-05-12T11:58:47.367Z,27.38
2019-05-12T12:01:16.006Z,26.43
2019-05-12T12:03:48.283Z,25.96
2019-05-12T12:06:20.589Z,25.42
2019-05-12T12:08:53.678Z,26.70
2019-05-12T12:11:28.114Z,27.41
2019-05-12T12:14:05.567Z,24.57
2019-05-12T12:16:34.185Z,25.34
2019-05-12T12:19:06.375Z,26.58
2019-05-12T12:21:40.379Z,26.01
2019-05-12T12:24:13.576Z,25.48
2019-05-12T12:26:46.791Z,22.45
2019-05-12T12:29:19.800Z,22.37
2019-05-12T12:31:52.636Z,21.10
2019-05-12T12:34:30.154Z,20.25
2019-05-12T12:37:00.001Z,18.92
2019-05-12T12:39:32.793Z,19.17
2019-05-12T12:42:05.619Z,19.86
2019-05-12T12:44:38.481Z,18.94
2019-05-12T12:47:11.282Z,19.13
2019-05-12T12:49:47.672Z,19.33
2019-05-12T12:52:18.643Z,19.60
2019-05-12T12:54:51.443Z,19.40
2019-05-12T12:57:24.226Z,18.56
2019-05-12T12:59:57.049Z,18.94
2019-05-12T13:02:29.867Z,19.73
2019-05-12T13:05:02.662Z,17.91
2019-05-12T13:07:35.469Z,18.12
2019-05-12T13:10:09.780Z,17.90
2019-05-12T13:12:43.817Z,18.12
2019-05-12T13:15:16.833Z,17.57
2019-05-12T13:17:49.611Z,17.57
2019-05-12T13:20:23.849Z,17.74
2019-05-12T13:22:56.807Z,17.45
2019-05-12T13:25:29.697Z,17.45
2019-05-12T13:28:10.369Z,16.82
2019-05-12T13:30:46.378Z,16.29
2019-05-12T13:33:14.751Z,16.64
2019-05-12T13:35:50.131Z,17.28
2019-05-12T13:38:20.608Z,16.81
2019-05-12T13:40:54.170Z,16.78
2019-05-12T13:43:28.197Z,16.77
2019-05-12T13:46:01.010Z,16.77
2019-05-12T13:48:33.811Z,16.41
2019-05-12T13:51:12.396Z,16.56
2019-05-12T13:53:46.350Z,16.51
2019-05-12T13:56:19.187Z,17.42
2019-05-12T13:58:50.199Z,17.42
2019-05-12T14:01:24.861Z,19.76
2019-05-12T14:03:58.343Z,23.39
2019-05-12T14:06:32.960Z,25.82
2019-05-12T14:09:04.532Z,27.56
2019-05-12T14:11:36.882Z,29.10
2019-05-12T14:14:15.166Z,30.90
2019-05-12T14:16:52.434Z,31.37
2019-05-12T14:19:19.006Z,32.16
2019-05-12T14:21:54.274Z,31.77
2019-05-12T14:24:26.394Z,32.51
2019-05-12T14:26:58.670Z,32.63
2019-05-12T14:29:30.914Z,33.71
2019-05-12T14:32:05.427Z,33.85
2019-05-12T14:34:37.136Z,34.37
2019-05-12T14:37:10.479Z,34.70
2019-05-12T14:39:48.098Z,34.31
2019-05-12T14:42:17.307Z,34.79
2019-05-12T14:44:49.927Z,35.28
2019-05-12T14:47:25.745Z,35.96
2019-05-12T14:49:57.304Z,35.50
2019-05-12T14:52:29.373Z,35.82
2019-05-12T14:55:03.431Z,35.87
2019-05-12T14:57:39.226Z,36.52
2019-05-12T15:00:11.130Z,36.44
2019-05-12T15:02:43.942Z,35.45
2019-05-12T15:05:16.315Z,36.14
2019-05-12T15:07:56.765Z,36.12
2019-05-12T15:10:23.434Z,36.73
2019-05-12T15:12:56.025Z,37.07
2019-05-12T15:15:28.268Z,36.55
2019-05-12T15:18:03.547Z,36.31
2019-05-12T15:20:34.489Z,37.03
2019-05-12T15:23:06.975Z,36.37
2019-05-12T15:25:39.191Z,36.16
2019-05-12T15:28:11.505Z,35.90
2019-05-12T15:30:43.792Z,36.08
2019-05-12T15:33:17.109Z,36.08
2019-05-12T15:35:49.304Z,36.18
2019-05-12T15:38:23.767Z,36.01
2019-05-12T15:40:56.582Z,35.93
2019-05-12T15:43:28.795Z,37.02
2019-05-12T15:46:01.367Z,37.11
2019-05-12T15:48:34.311Z,38.49
2019-05-12T15:51:09.305Z,37.24
2019-05-12T15:53:44.401Z,37.03
2019-05-12T15:56:22.616Z,36.97
2019-05-12T15:58:49.497Z,37.84
2019-05-12T16:01:24.020Z,37.60
2019-05-12T16:03:55.687Z,38.41
2019-05-12T16:06:27.928Z,37.80
2019-05-12T16:09:00.064Z,37.75
2019-05-12T16:11:33.385Z,37.76
2019-05-12T16:14:05.688Z,37.71
2019-05-12T16:16:42.444Z,37.11
2019-05-12T16:19:14.682Z,36.47
2019-05-12T16:21:46.655Z,36.97
2019-05-12T16:24:18.938Z,38.25
2019-05-12T16:26:52.146Z,37.44
2019-05-12T16:29:25.394Z,38.20
2019-05-12T16:31:57.604Z,38.33
2019-05-12T16:34:29.869Z,38.23
2019-05-12T16:37:04.076Z,38.17
2019-05-12T16:39:43.820Z,35.46
2019-05-12T16:42:10.788Z,33.35
2019-05-12T16:44:44.029Z,34.68
2019-05-12T16:47:18.769Z,36.00
2019-05-12T16:49:50.389Z,35.49
2019-05-12T16:52:24.402Z,33.00
2019-05-12T16:54:56.624Z,30.94
2019-05-12T16:57:28.816Z,30.88
2019-05-12T17:00:03.635Z,29.36
2019-05-12T17:02:41.826Z,27.40
2019-05-12T17:05:17.670Z,24.98
2019-05-12T17:07:44.312Z,24.54
2019-05-12T17:10:17.011Z,23.18
2019-05-12T17:12:49.312Z,24.61
2019-05-12T17:15:23.540Z,25.04
2019-05-12T17:18:01.147Z,24.97
2019-05-12T17:20:29.547Z,24.83
2019-05-12T17:23:03.399Z,25.81
2019-05-12T17:25:36.136Z,26.23
2019-05-12T17:28:08.483Z,25.79
2019-05-12T17:30:40.774Z,26.58
2019-05-12T17:33:22.220Z,27.43
2019-05-12T17:35:47.144Z,25.92
2019-05-12T17:38:20.255Z,24.91
2019-05-12T17:40:58.809Z,25.15
2019-05-12T17:43:27.222Z,25.85
2019-05-12T17:46:01.313Z,28.52
2019-05-12T17:48:37.368Z,30.47
2019-05-12T17:51:07.335Z,32.83
2019-05-12T17:53:40.464Z,34.58
2019-05-12T17:56:14.051Z,36.10
2019-05-12T17:58:47.538Z,37.63
2019-05-12T18:01:23.015Z,39.09
2019-05-12T18:03:54.032Z,39.48
2019-05-12T18:06:30.772Z,39.92
2019-05-12T18:09:00.224Z,40.08
2019-05-12T18:11:33.983Z,40.20
2019-05-12T18:14:07.192Z,40.72
2019-05-12T18:16:43.181Z,40.88
2019-05-12T18:19:15.432Z,41.20
2019-05-12T18:21:48.828Z,41.43
2019-05-12T18:24:21.055Z,41.78
2019-05-12T18:26:58.886Z,41.71
2019-05-12T18:29:27.340Z,42.47
2019-05-12T18:31:59.593Z,43.02
2019-05-12T18:34:33.998Z,43.33
2019-05-12T18:37:05.899Z,43.34
2019-05-12T18:39:38.122Z,43.76
2019-05-12T18:42:10.409Z,43.23
2019-05-12T18:44:43.897Z,43.78
2019-05-12T18:47:22.296Z,43.99
2019-05-12T18:49:50.428Z,44.59
2019-05-12T18:52:23.587Z,45.04
2019-05-12T18:54:57.798Z,45.36
2019-05-12T18:57:30.213Z,45.67
2019-05-12T19:00:04.903Z,46.32
2019-05-12T19:02:36.516Z,46.70
2019-05-12T19:05:12.974Z,47.13
2019-05-12T19:07:43.906Z,47.62
2019-05-12T19:10:16.426Z,47.85
2019-05-12T19:12:51.563Z,48.24
2019-05-12T19:15:22.716Z,48.60
2019-05-12T19:17:55.273Z,49.09
2019-05-12T19:20:31.299Z,49.74
2019-05-12T19:23:03.601Z,49.85
2019-05-12T19:25:40.264Z,50.26
2019-05-12T19:28:10.477Z,50.88
2019-05-12T19:30:43.798Z,50.98
2019-05-12T19:33:16.250Z,51.57
2019-05-12T19:35:50.515Z,51.70
2019-05-12T19:38:23.939Z,52.12
2019-05-12T19:41:00.771Z,52.33
2019-05-12T19:43:30.547Z,52.43
2019-05-12T19:46:04.679Z,52.26
2019-05-12T19:48:46.506Z,52.64
2019-05-12T19:51:22.966Z,52.71
2019-05-12T19:53:44.886Z,53.01
2019-05-12T19:56:19.007Z,52.95
2019-05-12T19:58:53.599Z,53.35
2019-05-12T20:01:32.221Z,53.39
2019-05-12T20:04:00.057Z,53.53
2019-05-12T20:06:33.602Z,53.51
2019-05-12T20:09:10.194Z,53.78
2019-05-12T20:11:39.889Z,53.83
2019-05-12T20:14:16.626Z,53.93
2019-05-12T20:16:46.240Z,54.39
2019-05-12T20:19:19.956Z,54.38
2019-05-12T20:21:54.329Z,54.51
2019-05-12T20:24:26.422Z,54.75
2019-05-12T20:26:58.693Z,54.75
2019-05-12T20:29:35.246Z,55.06
2019-05-12T20:32:04.955Z,55.11
2019-05-12T20:34:48.523Z,55.50
2019-05-12T20:37:14.345Z,55.84
2019-05-12T20:39:45.468Z,56.05
2019-05-12T20:42:17.706Z,56.37
2019-05-12T20:44:51.302Z,56.64
2019-05-12T20:47:24.080Z,56.63
2019-05-12T20:49:56.709Z,56.81
2019-05-12T20:52:28.945Z,56.99
2019-05-12T20:55:03.507Z,57.33
2019-05-12T20:57:40.080Z,57.35
2019-05-12T21:00:09.128Z,57.59
2019-05-12T21:02:43.998Z,57.85
2019-05-12T21:05:19.916Z,57.85
2019-05-12T21:07:49.673Z,58.05
2019-05-12T21:10:26.422Z,58.35
2019-05-12T21:12:55.865Z,58.21
2019-05-12T21:15:40.666Z,58.56
2019-05-12T21:18:06.851Z,58.71
2019-05-12T21:20:36.003Z,58.92
2019-05-12T21:23:08.288Z,59.15
2019-05-12T21:25:43.889Z,59.16
2019-05-12T21:28:14.956Z,59.40
2019-05-12T21:30:48.261Z,59.61
2019-05-12T21:33:23.877Z,59.66
2019-05-12T21:35:55.149Z,59.71
2019-05-12T21:38:29.612Z,60.03
2019-05-12T21:41:02.147Z,60.12
2019-05-12T21:43:35.236Z,60.18
2019-05-12T21:46:12.256Z,60.47
2019-05-12T21:48:41.421Z,60.39
2019-05-12T21:51:18.494Z,60.61
2019-05-12T21:53:50.553Z,60.68
2019-05-12T21:56:24.425Z,60.61
2019-05-12T21:58:58.167Z,60.63
2019-05-12T22:01:35.129Z,60.85
2019-05-12T22:04:05.383Z,60.96
2019-05-12T22:06:37.843Z,61.14
2019-05-12T22:09:10.372Z,61.30
2019-05-12T22:11:50.633Z,61.42
2019-05-12T22:14:16.646Z,61.70
2019-05-12T22:16:48.861Z,61.85
2019-05-12T22:19:21.087Z,62.24
2019-05-12T22:21:53.743Z,62.38
2019-05-12T22:24:33.888Z,62.68
2019-05-12T22:27:02.763Z,62.54
2019-05-12T22:29:35.038Z,62.75
2019-05-12T22:32:07.349Z,62.94
2019-05-12T22:34:41.965Z,63.30
2019-05-12T22:37:13.711Z,63.46
2019-05-12T22:39:46.013Z,63.59
2019-05-12T22:42:21.673Z,63.63
2019-05-12T22:45:00.875Z,63.84
2019-05-12T22:47:26.070Z,64.15
2019-05-12T22:49:58.272Z,64.14
2019-05-12T22:52:30.523Z,64.38
2019-05-12T22:55:03.608Z,64.39
2019-05-12T22:57:40.121Z,64.48
2019-05-12T23:00:13.503Z,64.71
2019-05-12T23:02:45.519Z,64.56
2019-05-12T23:05:20.549Z,64.81
2019-05-12T23:07:51.718Z,64.78
2019-05-12T23:10:23.980Z,64.54
2019-05-12T23:13:01.614Z,64.82
2019-05-12T23:15:33.286Z,64.87
2019-05-12T23:18:05.013Z,64.53
2019-05-12T23:20:37.220Z,64.38
2019-05-12T23:23:15.417Z,64.24
2019-05-12T23:25:44.138Z,64.54
2019-05-12T23:28:16.495Z,64.46
2019-05-12T23:30:50.130Z,64.48
2019-05-12T23:33:25.404Z,64.79
2019-05-12T23:35:56.341Z,64.53
2019-05-12T23:38:30.833Z,64.40
2019-05-12T23:41:04.197Z,64.44
2019-05-12T23:43:36.573Z,64.28
2019-05-12T23:46:08.825Z,64.43
2019-05-12T23:48:41.096Z,64.56
2019-05-12T23:51:14.312Z,64.53
2019-05-12T23:53:46.896Z,64.52
2019-05-12T23:56:19.128Z,64.54
2019-05-12T23:58:53.719Z,64.69
